Time;durP1;ratioP1;P1;durP2;ratioP2;P2;SDS_P1;SDS_P2;PMS_P1;PMS_P2;Temp;Humidity;BMP_temperature;BMP_pressure;BME280_temperature;BME280_humidity;BME280_pressure;Samples;Min_cycle;Max_cycle;Signal;HPM_P1;HPM_P2
2024/01/02 00:00:15;;;;;;;2.08;0.68;;;;;;;10.05;62.82;96358.97;4922300;28;20277;-80
2024/01/02 00:02:40;;;;;;;2.30;0.55;;;;;;;10.10;62.45;96366.78;4885203;28;20358;-80
2024/01/02 00:05:06;;;;;;;0.80;0.50;;;;;;;9.88;63.25;96341.03;4874628;28;20290;-80
2024/01/02 00:07:31;;;;;;;0.80;0.40;;;;;;;9.72;64.13;96346.22;4910535;28;20211;-80
2024/01/02 00:09:57;;;;;;;3.17;0.70;;;;;;;9.68;64.33;96341.78;4920908;28;20273;-79
2024/01/02 00:12:22;;;;;;;2.13;0.50;;;;;;;10.02;63.48;96336.06;4921592;28;20285;-78
2024/01/02 00:14:47;;;;;;;1.85;0.88;;;;;;;9.86;64.88;96337.91;4905903;28;20032;-79
2024/01/02 00:17:13;;;;;;;1.63;0.70;;;;;;;9.91;64.19;96323.06;4878115;28;20210;-79
2024/01/02 00:19:41;;;;;;;1.13;0.70;;;;;;;9.75;64.69;96311.91;4927031;28;20288;-79
2024/01/02 00:22:06;;;;;;;0.95;0.50;;;;;;;9.78;65.65;96317.63;4904703;28;20363;-79
2024/01/02 00:24:31;;;;;;;3.80;0.70;;;;;;;9.88;65.04;96307.22;4900693;28;20685;-80
2024/01/02 00:26:57;;;;;;;2.92;0.68;;;;;;;9.97;64.32;96315.28;4909440;28;20161;-77
2024/01/02 00:29:22;;;;;;;2.05;0.68;;;;;;;9.74;65.92;96306.97;4920284;28;20201;-78
2024/01/02 00:31:47;;;;;;;2.80;0.50;;;;;;;9.47;66.47;96297.59;4920505;28;20250;-79
2024/01/02 00:34:13;;;;;;;2.83;0.52;;;;;;;9.84;65.65;96290.59;4922746;28;20210;-79
2024/01/02 00:36:38;;;;;;;1.17;0.60;;;;;;;9.79;66.16;96275.00;4889389;28;20325;-79
2024/01/02 00:39:05;;;;;;;2.05;0.75;;;;;;;9.54;66.58;96272.16;4907540;28;20594;-79
2024/01/02 00:41:31;;;;;;;2.42;0.90;;;;;;;9.70;66.81;96275.50;4904552;28;20708;-78
2024/01/02 00:43:56;;;;;;;2.70;0.80;;;;;;;9.68;66.73;96259.41;4902308;28;20152;-78
2024/01/02 00:46:21;;;;;;;1.48;0.77;;;;;;;9.70;66.26;96248.75;4902328;28;20668;-79
2024/01/02 00:48:47;;;;;;;3.90;0.88;;;;;;;9.76;66.15;96237.28;4888676;28;20652;-79
2024/01/02 00:51:12;;;;;;;2.15;0.95;;;;;;;9.60;67.37;96239.13;4902857;28;20289;-79
2024/01/02 00:53:37;;;;;;;1.60;0.70;;;;;;;9.77;67.02;96238.06;4921421;28;20201;-79
2024/01/02 00:56:03;;;;;;;2.08;0.68;;;;;;;9.54;66.87;96225.38;4879548;28;20109;-79
2024/01/02 00:58:28;;;;;;;1.25;0.80;;;;;;;9.70;67.35;96238.34;4909612;28;20576;-79
2024/01/02 01:00:54;;;;;;;1.40;0.75;;;;;;;9.56;67.25;96232.88;4904803;28;20314;-79
2024/01/02 01:03:19;;;;;;;2.85;0.90;;;;;;;9.69;67.44;96242.75;4874721;28;20352;-78
2024/01/02 01:05:45;;;;;;;2.13;0.52;;;;;;;9.56;67.29;96210.28;4923289;28;20030;-78
2024/01/02 01:08:10;;;;;;;1.80;0.95;;;;;;;9.71;67.42;96206.09;4922847;28;20694;-78
2024/01/02 01:10:35;;;;;;;1.08;0.85;;;;;;;9.62;67.37;96223.28;4906437;28;20196;-79
2024/01/02 01:13:01;;;;;;;2.20;1.08;;;;;;;9.67;67.75;96199.88;4921772;28;20329;-79
2024/01/02 01:15:26;;;;;;;1.95;0.55;;;;;;;9.88;67.09;96209.19;4909439;28;20225;-79
2024/01/02 01:17:51;;;;;;;2.08;0.90;;;;;;;9.57;68.28;96187.66;4936942;28;20190;-79
2024/01/02 01:20:17;;;;;;;0.75;0.50;;;;;;;9.44;68.95;96201.97;4887345;28;20250;-80
2024/01/02 01:22:42;;;;;;;1.05;0.52;;;;;;;9.63;68.73;96191.84;4908267;28;20189;-79
2024/01/02 01:25:07;;;;;;;1.58;0.50;;;;;;;9.57;67.70;96185.06;4901265;28;20263;-79
2024/01/02 01:27:33;;;;;;;1.95;0.50;;;;;;;9.51;69.17;96194.69;4917624;28;20202;-79
2024/01/02 01:29:58;;;;;;;1.05;0.57;;;;;;;9.60;68.54;96184.56;4895424;28;20716;-80
2024/01/02 01:32:24;;;;;;;0.82;0.47;;;;;;;9.63;68.55;96183.25;4889225;28;20184;-80
2024/01/02 01:34:49;;;;;;;2.08;0.50;;;;;;;9.67;68.27;96169.47;4912774;28;20648;-80
2024/01/02 01:37:14;;;;;;;0.82;0.50;;;;;;;9.56;68.66;96168.72;4884857;28;20111;-79
2024/01/02 01:39:40;;;;;;;1.02;0.57;;;;;;;9.81;68.19;96155.94;4924060;28;20156;-80
2024/01/02 01:42:05;;;;;;;1.83;0.50;;;;;;;9.23;70.04;96159.63;4891471;28;20190;-81
2024/01/02 01:44:31;;;;;;;1.10;0.50;;;;;;;9.55;69.58;96163.78;4894860;28;20033;-79
2024/01/02 01:46:56;;;;;;;1.20;0.60;;;;;;;9.52;69.68;96148.69;4911428;28;20248;-80
2024/01/02 01:49:22;;;;;;;1.40;0.70;;;;;;;9.68;68.85;96147.66;4907940;28;20296;-80
2024/01/02 01:51:49;;;;;;;1.95;0.60;;;;;;;9.69;68.85;96151.78;4910972;28;20284;-80
2024/01/02 01:54:15;;;;;;;2.13;0.60;;;;;;;9.55;68.77;96137.78;4916370;28;20163;-80
2024/01/02 01:56:42;;;;;;;0.70;0.50;;;;;;;9.29;69.74;96131.84;4908184;28;20321;-80
2024/01/02 01:59:08;;;;;;;2.35;0.50;;;;;;;9.10;70.81;96116.00;4892293;28;20320;-83
2024/01/02 02:01:34;;;;;;;0.88;0.40;;;;;;;9.29;70.23;96114.44;4890436;28;20178;-82
2024/01/02 02:04:00;;;;;;;0.60;0.50;;;;;;;9.17;70.05;96106.91;4898056;28;20210;-81
2024/01/02 02:06:26;;;;;;;1.02;0.30;;;;;;;9.07;71.31;96106.94;4916258;28;20354;-82
2024/01/02 02:08:52;;;;;;;0.70;0.38;;;;;;;9.08;71.22;96099.91;4876751;28;20190;-83
2024/01/02 02:11:18;;;;;;;1.05;0.40;;;;;;;9.01;71.12;96094.97;4908709;28;20218;-83
2024/01/02 02:13:43;;;;;;;0.85;0.40;;;;;;;9.12;70.65;96087.97;4925051;28;20352;-81
2024/01/02 02:16:09;;;;;;;1.08;0.30;;;;;;;8.73;71.60;96080.72;4907708;28;20198;-81
2024/01/02 02:18:34;;;;;;;0.73;0.20;;;;;;;9.21;70.02;96080.44;4908737;28;20275;-81
2024/01/02 02:21:00;;;;;;;0.65;0.30;;;;;;;8.55;72.42;96067.22;4917024;28;20280;-83
2024/01/02 02:23:25;;;;;;;1.25;0.40;;;;;;;8.99;70.88;96064.06;4925535;28;20668;-81
2024/01/02 02:25:50;;;;;;;0.70;0.20;;;;;;;8.86;71.44;96054.25;4906464;28;20159;-85
2024/01/02 02:28:16;;;;;;;1.65;0.35;;;;;;;8.80;71.78;96045.66;4894002;28;20285;-84
2024/01/02 02:30:41;;;;;;;1.20;0.30;;;;;;;9.01;71.36;96040.44;4893480;28;20162;-84
2024/01/02 02:33:06;;;;;;;1.23;0.30;;;;;;;9.00;71.42;96018.13;4879735;28;20163;-83
2024/01/02 02:35:32;;;;;;;0.88;0.30;;;;;;;9.18;70.25;96007.22;4908858;28;20026;-82
2024/01/02 02:37:57;;;;;;;1.05;0.25;;;;;;;8.96;71.31;96006.72;4893296;28;20553;-83
2024/01/02 02:40:23;;;;;;;0.70;0.40;;;;;;;9.02;70.93;95990.09;4876979;28;20197;-83
2024/01/02 02:42:48;;;;;;;1.90;0.30;;;;;;;9.30;69.74;95993.13;4892348;28;20665;-83
2024/01/02 02:45:14;;;;;;;1.42;0.30;;;;;;;9.33;69.27;95966.63;4901791;28;20636;-82
2024/01/02 02:47:39;;;;;;;0.30;0.20;;;;;;;9.06;71.30;95972.94;4908782;28;20233;-83
2024/01/02 02:50:05;;;;;;;1.75;0.30;;;;;;;9.18;70.49;95950.06;4925533;28;20091;-83
2024/01/02 02:52:32;;;;;;;1.10;0.20;;;;;;;9.14;71.60;95946.44;4908109;28;20288;-83
2024/01/02 02:55:00;;;;;;;0.20;0.20;;;;;;;9.20;71.54;95931.59;4884851;28;20229;-81
2024/01/02 02:57:25;;;;;;;0.75;0.30;;;;;;;9.24;70.70;95913.69;4895509;28;20209;-83
2024/01/02 02:59:51;;;;;;;1.10;0.30;;;;;;;9.28;70.93;95909.50;4913810;28;20692;-82
2024/01/02 03:02:16;;;;;;;0.47;0.25;;;;;;;9.38;70.80;95919.84;4907116;28;20201;-82
2024/01/02 03:04:43;;;;;;;0.77;0.13;;;;;;;9.19;71.51;95923.03;4898556;28;20306;-82
2024/01/02 03:07:09;;;;;;;0.98;0.20;;;;;;;9.43;70.65;95922.44;4889538;28;20277;-82
2024/01/02 03:09:34;;;;;;;1.75;0.30;;;;;;;9.17;71.83;95924.38;4884899;28;20708;-82
2024/01/02 03:12:00;;;;;;;2.33;0.30;;;;;;;9.32;70.89;95918.31;4901602;28;20276;-81
2024/01/02 03:14:27;;;;;;;0.90;0.30;;;;;;;9.29;71.75;95911.06;4886709;28;20736;-81
2024/01/02 03:16:53;;;;;;;0.60;0.30;;;;;;;9.40;71.39;95929.97;4920741;28;20318;-80
2024/01/02 03:19:19;;;;;;;1.38;0.30;;;;;;;9.43;71.66;95901.66;4891427;28;20663;-82
2024/01/02 03:21:44;;;;;;;1.33;0.30;;;;;;;9.67;71.12;95898.41;4922942;28;20214;-82
2024/01/02 03:24:10;;;;;;;1.70;0.32;;;;;;;9.48;71.38;95893.81;4907570;28;20248;-83
2024/01/02 03:26:35;;;;;;;0.77;0.28;;;;;;;9.30;71.64;95891.84;4923096;28;20175;-82
2024/01/02 03:29:00;;;;;;;0.40;0.40;;;;;;;9.27;71.85;95871.59;4923355;28;20368;-83
2024/01/02 03:31:26;;;;;;;0.40;0.20;;;;;;;9.27;72.93;95874.19;4886934;28;20619;-82
2024/01/02 03:33:51;;;;;;;0.63;0.55;;;;;;;9.66;70.95;95878.63;4887367;28;20692;-80
2024/01/02 03:36:20;;;;;;;0.50;0.20;;;;;;;9.60;71.12;95859.72;4897125;28;20194;-83
2024/01/02 03:38:49;;;;;;;0.40;0.20;;;;;;;9.10;72.73;95851.94;4886422;28;20202;-82
2024/01/02 03:41:15;;;;;;;1.27;0.30;;;;;;;9.15;74.01;95858.91;4905958;28;20280;-81
2024/01/02 03:43:41;;;;;;;0.80;0.50;;;;;;;9.21;73.69;95847.47;4924352;28;20110;-80
2024/01/02 03:46:06;;;;;;;0.20;0.20;;;;;;;9.36;72.58;95834.41;4907547;28;20190;-83
2024/01/02 03:48:32;;;;;;;0.28;0.20;;;;;;;9.43;72.64;95848.91;4892074;28;20706;-83
2024/01/02 03:50:57;;;;;;;0.40;0.32;;;;;;;9.35;72.80;95840.63;4876439;28;20700;-81
2024/01/02 03:53:23;;;;;;;0.30;0.22;;;;;;;9.29;73.54;95828.72;4907163;28;20180;-82
2024/01/02 03:55:48;;;;;;;0.85;0.30;;;;;;;9.37;73.38;95819.56;4906458;28;20202;-82
2024/01/02 03:58:13;;;;;;;0.30;0.30;;;;;;;9.47;73.40;95824.72;4879751;28;20179;-81
2024/01/02 04:00:39;;;;;;;0.30;0.22;;;;;;;9.59;72.23;95806.19;4907235;28;20640;-82
2024/01/02 04:03:08;;;;;;;0.40;0.30;;;;;;;9.69;71.80;95807.94;4906175;28;20726;-81
2024/01/02 04:05:33;;;;;;;0.60;0.35;;;;;;;9.58;72.68;95802.03;4924328;28;20194;-82
2024/01/02 04:07:59;;;;;;;0.90;0.20;;;;;;;9.74;72.11;95802.69;4875995;28;20229;-84
2024/01/02 04:10:24;;;;;;;0.50;0.30;;;;;;;9.63;72.02;95786.41;4907944;28;20551;-83
2024/01/02 04:12:49;;;;;;;0.50;0.22;;;;;;;9.71;72.55;95778.00;4922933;28;20202;-80
2024/01/02 04:15:15;;;;;;;0.50;0.40;;;;;;;9.77;72.17;95770.16;4891241;28;20330;-83
2024/01/02 04:17:41;;;;;;;1.33;0.30;;;;;;;9.73;71.89;95757.75;4918949;28;20211;-82
2024/01/02 04:20:06;;;;;;;0.47;0.43;;;;;;;9.25;74.34;95760.16;4911827;28;20202;-82
2024/01/02 04:22:32;;;;;;;0.50;0.30;;;;;;;9.54;73.03;95757.66;4902405;28;20386;-81
2024/01/02 04:24:57;;;;;;;0.35;0.20;;;;;;;9.63;72.57;95757.84;4922324;28;20206;-82
2024/01/02 04:27:23;;;;;;;0.65;0.20;;;;;;;9.84;72.27;95761.03;4890025;28;20294;-81
2024/01/02 04:29:48;;;;;;;0.25;0.20;;;;;;;9.89;72.50;95755.78;4939932;28;20186;-84
2024/01/02 04:32:14;;;;;;;0.38;0.38;;;;;;;9.37;74.04;95773.63;4875083;28;20604;-81
2024/01/02 04:34:39;;;;;;;0.30;0.20;;;;;;;9.62;73.13;95737.31;4907469;28;20198;-83
2024/01/02 04:37:05;;;;;;;1.27;0.30;;;;;;;9.61;73.20;95720.16;4926416;28;20263;-81
2024/01/02 04:39:30;;;;;;;0.40;0.40;;;;;;;9.71;72.79;95736.44;4921625;28;20243;-81
2024/01/02 04:41:55;;;;;;;0.55;0.30;;;;;;;9.76;73.29;95733.00;4922153;28;20128;-83
2024/01/02 04:44:21;;;;;;;0.85;0.20;;;;;;;9.77;73.08;95728.59;4928673;28;20294;-82
2024/01/02 04:46:46;;;;;;;1.10;0.20;;;;;;;9.71;73.51;95718.22;4919188;28;20192;-81
2024/01/02 04:49:13;;;;;;;0.30;0.20;;;;;;;9.85;72.38;95712.41;4905643;28;20214;-83
2024/01/02 04:51:38;;;;;;;0.47;0.25;;;;;;;9.87;72.76;95724.09;4890741;28;20197;-83
2024/01/02 04:54:04;;;;;;;1.05;0.30;;;;;;;9.76;72.66;95701.81;4889809;28;20170;-82
2024/01/02 04:56:29;;;;;;;0.40;0.25;;;;;;;9.71;73.61;95717.47;4895072;28;20294;-83
2024/01/02 04:58:54;;;;;;;0.50;0.30;;;;;;;9.43;74.38;95711.22;4888899;28;20205;-82
2024/01/02 05:01:20;;;;;;;0.70;0.20;;;;;;;9.44;74.24;95705.75;4908996;28;20187;-82
2024/01/02 05:03:45;;;;;;;0.80;0.20;;;;;;;9.77;73.45;95703.38;4890204;28;20269;-83
2024/01/02 05:06:11;;;;;;;0.68;0.35;;;;;;;9.93;72.72;95704.78;4921502;28;20699;-81
2024/01/02 05:08:36;;;;;;;0.50;0.20;;;;;;;10.00;72.86;95693.28;4891042;28;20283;-82
2024/01/02 05:11:02;;;;;;;2.78;0.30;;;;;;;9.75;73.61;95676.91;4909603;28;20068;-84
2024/01/02 05:13:27;;;;;;;1.33;0.30;;;;;;;9.78;73.11;95684.13;4905719;28;20179;-81
2024/01/02 05:15:53;;;;;;;0.20;0.20;;;;;;;9.55;74.23;95659.69;4907786;28;20624;-85
2024/01/02 05:18:21;;;;;;;0.45;0.30;;;;;;;9.60;74.44;95659.63;4911121;28;20303;-81
2024/01/02 05:20:47;;;;;;;0.60;0.20;;;;;;;9.99;72.77;95644.91;4888825;28;20186;-80
2024/01/02 05:23:13;;;;;;;0.50;0.22;;;;;;;9.63;74.23;95655.69;4927324;28;20038;-81
2024/01/02 05:25:38;;;;;;;0.50;0.50;;;;;;;9.63;74.52;95646.09;4912837;28;20691;-83
2024/01/02 05:28:04;;;;;;;0.20;0.20;;;;;;;9.77;73.27;95651.41;4942250;28;20254;-81
2024/01/02 05:30:29;;;;;;;0.20;0.20;;;;;;;9.60;74.25;95651.06;4942267;28;20290;-81
2024/01/02 05:32:55;;;;;;;0.68;0.20;;;;;;;9.87;73.77;95655.69;4903241;28;20686;-81
2024/01/02 05:35:20;;;;;;;0.47;0.32;;;;;;;10.10;73.07;95664.56;4908608;28;20210;-80
2024/01/02 05:37:46;;;;;;;0.75;0.30;;;;;;;9.85;73.57;95652.59;4932049;28;20106;-83
2024/01/02 05:40:13;;;;;;;0.40;0.20;;;;;;;9.88;73.57;95675.47;4915468;28;20269;-81
2024/01/02 05:42:38;;;;;;;1.20;0.43;;;;;;;9.69;74.50;95646.81;4878691;28;20655;-83
2024/01/02 05:45:04;;;;;;;1.42;0.30;;;;;;;9.50;75.35;95644.91;4910781;28;20202;-83
2024/01/02 05:47:29;;;;;;;0.60;0.30;;;;;;;9.99;73.06;95652.72;4909712;28;20214;-82
2024/01/02 05:49:54;;;;;;;1.08;0.30;;;;;;;9.74;73.81;95664.94;4895407;28;20246;-81
2024/01/02 05:52:20;;;;;;;0.50;0.30;;;;;;;9.67;74.08;95648.91;4902005;28;20501;-79
2024/01/02 05:54:45;;;;;;;0.50;0.25;;;;;;;9.85;73.57;95653.41;4886517;28;20693;-82
2024/01/02 05:57:11;;;;;;;0.95;0.20;;;;;;;9.87;74.04;95666.09;4924974;28;20276;-81
2024/01/02 05:59:37;;;;;;;0.82;0.28;;;;;;;10.00;72.60;95654.28;4906738;28;20349;-83
2024/01/02 06:02:02;;;;;;;0.50;0.20;;;;;;;10.16;72.80;95642.66;4905281;28;20703;-81
2024/01/02 06:04:28;;;;;;;0.63;0.30;;;;;;;9.91;73.25;95630.72;4923709;28;20203;-82
2024/01/02 06:06:53;;;;;;;0.32;0.30;;;;;;;9.73;73.59;95640.00;4874809;28;20183;-82
2024/01/02 06:09:19;;;;;;;1.00;0.30;;;;;;;9.88;73.75;95634.63;4915411;28;20206;-82
2024/01/02 06:11:44;;;;;;;0.98;0.30;;;;;;;9.88;74.01;95647.63;4924246;28;20276;-79
2024/01/02 06:14:11;;;;;;;0.20;0.20;;;;;;;9.97;73.33;95636.63;4933878;28;20244;-80
2024/01/02 06:16:37;;;;;;;1.05;0.40;;;;;;;9.72;74.28;95641.81;4908302;28;20205;-81
2024/01/02 06:19:03;;;;;;;1.58;0.40;;;;;;;10.30;72.21;95635.69;4892834;28;20194;-80
2024/01/02 06:21:28;;;;;;;0.63;0.40;;;;;;;10.14;73.06;95647.34;4899320;28;20238;-81
2024/01/02 06:23:54;;;;;;;0.52;0.22;;;;;;;10.15;72.51;95645.53;4909706;28;20341;-81
2024/01/02 06:26:19;;;;;;;0.73;0.35;;;;;;;9.99;72.97;95658.72;4900267;28;20199;-82
2024/01/02 06:28:44;;;;;;;0.30;0.20;;;;;;;10.12;73.07;95657.25;4883788;28;20189;-82
2024/01/02 06:31:10;;;;;;;0.77;0.30;;;;;;;9.94;73.55;95656.94;4891994;28;20433;-82
2024/01/02 06:33:35;;;;;;;0.63;0.20;;;;;;;10.12;72.83;95683.25;4882434;28;20269;-82
2024/01/02 06:36:01;;;;;;;0.40;0.20;;;;;;;9.91;73.82;95665.28;4881030;28;20210;-83
2024/01/02 06:38:26;;;;;;;0.50;0.40;;;;;;;9.85;73.39;95668.22;4892590;28;20300;-81
2024/01/02 06:40:51;;;;;;;0.52;0.40;;;;;;;10.13;72.38;95695.22;4892898;28;20190;-83
2024/01/02 06:43:17;;;;;;;0.40;0.30;;;;;;;10.05;72.69;95688.03;4892580;28;20206;-80
2024/01/02 06:45:42;;;;;;;0.30;0.22;;;;;;;9.98;73.35;95674.59;4900890;28;20640;-81
2024/01/02 06:48:08;;;;;;;1.33;0.43;;;;;;;10.02;73.47;95704.16;4892056;28;20233;-82
2024/01/02 06:50:33;;;;;;;0.80;0.30;;;;;;;9.94;73.61;95693.31;4892431;28;20190;-83
2024/01/02 06:52:59;;;;;;;0.55;0.55;;;;;;;10.15;72.80;95687.13;4893720;28;20166;-82
2024/01/02 06:55:25;;;;;;;1.17;0.38;;;;;;;10.24;72.39;95691.44;4894973;28;20218;-82
2024/01/02 06:57:51;;;;;;;0.52;0.40;;;;;;;10.13;72.52;95690.00;4899501;28;20551;-83
2024/01/02 07:00:16;;;;;;;0.88;0.30;;;;;;;10.22;72.27;95693.53;4900423;28;20328;-81
2024/01/02 07:02:43;;;;;;;1.52;0.30;;;;;;;10.07;73.27;95691.88;4896065;28;20190;-83
2024/01/02 07:05:12;;;;;;;0.60;0.30;;;;;;;10.35;72.59;95706.94;4899683;28;20684;-85
2024/01/02 07:07:37;;;;;;;0.30;0.20;;;;;;;10.23;72.44;95709.91;4916384;28;20582;-84
2024/01/02 07:10:03;;;;;;;0.60;0.60;;;;;;;9.96;73.66;95703.47;4907658;28;20045;-84
2024/01/02 07:12:28;;;;;;;0.85;0.30;;;;;;;10.37;71.84;95697.06;4902023;28;20198;-81
2024/01/02 07:14:54;;;;;;;1.58;0.30;;;;;;;10.20;72.70;95710.50;4899794;28;20097;-82
2024/01/02 07:17:21;;;;;;;0.70;0.30;;;;;;;10.06;72.69;95712.97;4908616;28;20163;-83
2024/01/02 07:19:46;;;;;;;0.93;0.30;;;;;;;9.92;73.31;95723.25;4900134;28;20250;-83
2024/01/02 07:22:12;;;;;;;1.58;0.38;;;;;;;10.27;72.42;95729.13;4914278;28;20309;-82
2024/01/02 07:24:37;;;;;;;0.43;0.30;;;;;;;10.46;71.64;95724.75;4894234;28;20281;-85
2024/01/02 07:27:03;;;;;;;0.40;0.40;;;;;;;10.50;72.01;95740.59;4876910;28;20182;-84
2024/01/02 07:29:28;;;;;;;0.28;0.28;;;;;;;10.05;73.35;95750.44;4893881;28;20172;-82
2024/01/02 07:31:53;;;;;;;0.50;0.47;;;;;;;10.15;72.69;95733.97;4893562;28;20548;-82
2024/01/02 07:34:20;;;;;;;0.82;0.32;;;;;;;9.94;73.70;95723.75;4938290;28;20241;-83
2024/01/02 07:36:45;;;;;;;0.70;0.40;;;;;;;10.32;72.08;95741.34;4907389;28;20230;-82
2024/01/02 07:39:10;;;;;;;0.82;0.38;;;;;;;10.10;73.09;95729.56;4898531;28;20308;-82
2024/01/02 07:41:36;;;;;;;1.08;0.30;;;;;;;10.40;71.36;95733.69;4903833;28;20022;-85
2024/01/02 07:44:03;;;;;;;0.80;0.30;;;;;;;10.11;73.13;95750.09;4925648;28;20209;-82
2024/01/02 07:46:29;;;;;;;0.30;0.30;;;;;;;10.11;73.68;95757.13;4920622;28;20585;-82
2024/01/02 07:48:54;;;;;;;0.65;0.32;;;;;;;10.49;71.69;95755.44;4895809;28;20029;-82
2024/01/02 07:51:19;;;;;;;0.57;0.20;;;;;;;10.13;72.77;95747.22;4891938;28;20282;-82
2024/01/02 07:53:45;;;;;;;0.90;0.30;;;;;;;10.12;72.87;95750.88;4908772;28;20167;-85
2024/01/02 07:56:10;;;;;;;0.40;0.30;;;;;;;10.08;73.51;95761.06;4919634;28;20325;-82
2024/01/02 07:58:35;;;;;;;1.02;0.38;;;;;;;10.21;73.23;95762.25;4892096;28;20636;-83
2024/01/02 08:01:01;;;;;;;0.30;0.30;;;;;;;10.28;72.73;95744.47;4914064;28;20094;-83
2024/01/02 08:03:26;;;;;;;0.77;0.32;;;;;;;10.23;72.30;95765.34;4907951;28;20233;-82
2024/01/02 08:05:51;;;;;;;0.40;0.40;;;;;;;10.21;73.26;95748.44;4873015;28;20189;-83
2024/01/02 08:08:17;;;;;;;0.40;0.30;;;;;;;10.37;72.00;95751.69;4903988;28;20704;-82
2024/01/02 08:10:42;;;;;;;0.35;0.35;;;;;;;10.09;73.38;95743.63;4920538;28;20576;-83
2024/01/02 08:13:08;;;;;;;0.70;0.40;;;;;;;10.15;72.94;95747.72;4910237;28;20183;-82
2024/01/02 08:15:33;;;;;;;0.50;0.40;;;;;;;10.16;73.40;95746.69;4914697;28;20214;-84
2024/01/02 08:17:59;;;;;;;0.93;0.40;;;;;;;10.12;73.55;95759.44;4913556;28;20159;-86
2024/01/02 08:20:25;;;;;;;1.23;0.40;;;;;;;10.03;73.25;95747.34;4904714;28;20140;-83
2024/01/02 08:22:51;;;;;;;0.50;0.50;;;;;;;10.27;72.53;95766.31;4892966;28;20310;-82
2024/01/02 08:25:16;;;;;;;0.55;0.30;;;;;;;10.33;72.37;95772.25;4899328;28;20185;-81
2024/01/02 08:27:42;;;;;;;0.63;0.40;;;;;;;9.91;73.87;95758.09;4897250;28;20220;-85
2024/01/02 08:30:07;;;;;;;0.50;0.30;;;;;;;9.96;73.54;95757.28;4884400;28;20163;-85
2024/01/02 08:32:33;;;;;;;0.63;0.30;;;;;;;10.05;72.99;95772.00;4920742;28;20207;-84
2024/01/02 08:34:59;;;;;;;0.82;0.40;;;;;;;10.03;73.76;95761.09;4923831;28;20053;-84
2024/01/02 08:37:25;;;;;;;1.35;0.50;;;;;;;9.73;74.66;95770.75;4901822;28;20034;-82
2024/01/02 08:39:50;;;;;;;0.60;0.50;;;;;;;10.08;73.48;95770.69;4907173;28;20029;-83
2024/01/02 08:42:16;;;;;;;0.80;0.50;;;;;;;10.03;73.43;95762.94;4919656;28;20060;-85
2024/01/02 08:44:41;;;;;;;0.80;0.60;;;;;;;9.87;73.94;95760.47;4930751;28;20036;-85
2024/01/02 08:47:07;;;;;;;0.63;0.40;;;;;;;10.23;72.56;95780.94;4907306;28;20019;-84
2024/01/02 08:49:32;;;;;;;0.80;0.77;;;;;;;10.37;72.07;95770.66;4904910;28;20423;-83
2024/01/02 08:51:57;;;;;;;0.50;0.32;;;;;;;10.54;71.42;95770.22;4908421;28;20046;-82
2024/01/02 08:54:23;;;;;;;1.65;0.90;;;;;;;10.35;71.76;95767.56;4903183;28;20400;-83
2024/01/02 08:56:48;;;;;;;0.70;0.45;;;;;;;10.03;73.15;95768.13;4895011;28;20227;-81
2024/01/02 08:59:13;;;;;;;0.88;0.60;;;;;;;10.43;72.36;95787.00;4880524;28;20375;-82
2024/01/02 09:01:39;;;;;;;1.75;0.50;;;;;;;10.30;72.21;95786.59;4908557;28;20241;-83
2024/01/02 09:04:04;;;;;;;1.88;0.32;;;;;;;10.57;71.53;95761.84;4894760;28;20208;-82
2024/01/02 09:06:30;;;;;;;1.00;0.50;;;;;;;10.17;73.17;95768.25;4883390;28;21066;-86
2024/01/02 09:08:58;;;;;;;0.80;0.50;;;;;;;10.35;72.94;95787.59;4894473;28;20167;-84
2024/01/02 09:11:26;;;;;;;0.93;0.45;;;;;;;10.32;72.21;95762.91;4912812;28;20273;-84
2024/01/02 09:13:52;;;;;;;1.38;0.50;;;;;;;10.38;72.06;95780.00;4905056;28;20115;-82
2024/01/02 09:16:17;;;;;;;0.57;0.32;;;;;;;10.59;71.72;95777.19;4907262;28;20324;-82
2024/01/02 09:18:42;;;;;;;0.80;0.50;;;;;;;10.32;72.55;95769.97;4904043;28;20347;-81
2024/01/02 09:21:08;;;;;;;0.40;0.30;;;;;;;10.59;71.54;95780.56;4908914;28;20216;-82
2024/01/02 09:23:36;;;;;;;0.47;0.47;;;;;;;10.45;72.13;95761.47;4885731;28;20628;-85
2024/01/02 09:26:04;;;;;;;1.13;0.40;;;;;;;10.63;71.90;95776.34;4881947;28;20284;-82
2024/01/02 09:28:30;;;;;;;0.70;0.40;;;;;;;10.42;71.65;95764.66;4936319;28;20185;-85
2024/01/02 09:30:58;;;;;;;0.40;0.30;;;;;;;10.54;71.69;95785.84;4897334;28;20740;-83
2024/01/02 09:33:26;;;;;;;1.38;0.43;;;;;;;10.39;72.25;95760.00;4916972;28;20193;-82
2024/01/02 09:35:51;;;;;;;0.73;0.38;;;;;;;10.59;72.00;95783.19;4905207;28;20171;-82
2024/01/02 09:38:16;;;;;;;0.32;0.30;;;;;;;10.37;72.74;95785.50;4916520;28;20206;-83
2024/01/02 09:41:18;;;;;;;0.30;0.30;;;;;;;10.42;72.25;95780.25;4912314;28;20270;-80
2024/01/02 09:43:55;;;;;;;0.30;0.30;;;;;;;10.51;72.05;95802.00;4882069;28;20721;-82
2024/01/02 09:46:33;;;;;;;0.25;0.20;;;;;;;10.52;71.89;95800.16;4908530;28;20621;-83
2024/01/02 09:49:05;;;;;;;0.50;0.40;;;;;;;10.20;73.43;95784.09;4946051;28;20201;-86
2024/01/02 09:51:54;;;;;;;0.80;0.20;;;;;;;10.18;73.00;95769.78;4923390;28;20280;-83
2024/01/02 09:54:45;;;;;;;0.40;0.30;;;;;;;10.53;72.56;95773.88;4929370;28;20607;-81
2024/01/02 09:57:18;;;;;;;0.20;0.20;;;;;;;10.44;71.67;95771.09;4942152;28;20636;-82
2024/01/02 10:00:05;;;;;;;0.40;0.30;;;;;;;10.52;72.63;95774.94;4944552;28;20159;-84
2024/01/02 10:02:55;;;;;;;0.77;0.30;;;;;;;10.41;72.46;95773.50;4908904;28;20707;-82
2024/01/02 10:05:35;;;;;;;0.77;0.20;;;;;;;10.73;71.49;95770.25;4898767;28;20309;-82
2024/01/02 10:08:39;;;;;;;0.38;0.30;;;;;;;10.34;73.11;95778.25;4918970;28;20190;-82
2024/01/02 10:11:12;;;;;;;0.50;0.20;;;;;;;10.57;71.70;95768.88;4907795;28;20213;-84
2024/01/02 10:13:59;;;;;;;0.57;0.30;;;;;;;10.45;72.38;95766.66;4915496;28;20188;-82
2024/01/02 10:16:32;;;;;;;0.90;0.20;;;;;;;10.60;72.69;95753.47;4941538;28;20213;-82
2024/01/02 10:19:13;;;;;;;0.50;0.20;;;;;;;10.58;72.33;95754.81;4923429;28;20121;-83
2024/01/02 10:22:01;;;;;;;0.35;0.20;;;;;;;10.50;72.88;95735.38;4894985;28;20761;-84
2024/01/02 10:24:49;;;;;;;0.95;0.30;;;;;;;10.63;71.77;95724.28;4921043;28;20198;-81
2024/01/02 10:27:15;;;;;;;0.20;0.20;;;;;;;10.64;71.52;95723.25;4924893;28;20639;-84
2024/01/02 10:29:53;;;;;;;0.38;0.38;;;;;;;10.62;72.17;95734.97;4928790;28;20170;-83
2024/01/02 10:32:54;;;;;;;0.38;0.35;;;;;;;10.45;73.30;95710.22;4897623;28;20265;-86
2024/01/02 10:35:37;;;;;;;0.65;0.38;;;;;;;10.68;72.45;95715.66;4898275;28;20513;-81
2024/01/02 10:38:34;;;;;;;0.22;0.20;;;;;;;10.90;71.50;95703.91;4926441;28;20278;-81
2024/01/02 10:41:21;;;;;;;0.28;0.20;;;;;;;10.77;71.51;95689.78;4879376;28;20692;-81
2024/01/02 10:43:54;;;;;;;0.45;0.30;;;;;;;10.60;72.56;95695.47;4926389;28;20038;-81
2024/01/02 10:46:38;;;;;;;0.40;0.22;;;;;;;10.34;72.94;95687.97;4935227;28;20217;-84
2024/01/02 10:49:19;;;;;;;0.40;0.40;;;;;;;10.38;73.37;95683.75;4919608;28;20591;-80
2024/01/02 10:51:56;;;;;;;0.50;0.20;;;;;;;10.30;73.15;95659.13;4935535;28;20584;-82
2024/01/02 10:54:35;;;;;;;0.20;0.20;;;;;;;10.52;73.17;95663.03;4922060;28;20264;-83
2024/01/02 10:57:03;;;;;;;0.35;0.30;;;;;;;10.39;73.87;95666.31;4929048;28;20256;-79
2024/01/02 10:59:32;;;;;;;0.40;0.40;;;;;;;10.80;72.33;95665.78;4932875;28;20288;-81
2024/01/02 11:02:30;;;;;;;0.30;0.30;;;;;;;10.53;73.07;95651.56;4932819;28;20263;-84
2024/01/02 11:05:12;;;;;;;1.67;0.43;;;;;;;10.35;73.40;95660.91;4928832;28;20710;-81
2024/01/02 11:07:41;;;;;;;0.40;0.30;;;;;;;10.43;73.18;95649.84;4927239;28;20194;-80
2024/01/02 11:10:13;;;;;;;0.40;0.20;;;;;;;10.36;73.84;95631.22;4919720;28;20258;-82
2024/01/02 11:12:48;;;;;;;0.98;0.20;;;;;;;10.64;73.13;95647.78;4904965;28;20236;-83
2024/01/02 11:15:14;;;;;;;0.15;0.15;;;;;;;10.33;73.69;95649.22;4916083;28;20276;-80
2024/01/02 11:17:40;;;;;;;0.80;0.20;;;;;;;10.23;74.28;95650.88;4892809;28;20194;-84
2024/01/02 11:20:10;;;;;;;0.38;0.30;;;;;;;10.32;73.87;95645.84;4927168;28;20298;-85
2024/01/02 11:22:41;;;;;;;0.20;0.20;;;;;;;10.44;73.67;95637.66;4884146;28;20194;-84
2024/01/02 11:25:09;;;;;;;0.40;0.30;;;;;;;10.72;73.19;95648.94;4914237;28;20156;-81
2024/01/02 11:27:37;;;;;;;0.73;0.40;;;;;;;10.79;72.43;95631.13;4898385;28;20672;-84
2024/01/02 11:30:05;;;;;;;0.35;0.25;;;;;;;10.73;72.70;95631.50;4908597;28;20296;-82
2024/01/02 11:33:20;;;;;;;1.13;0.30;;;;;;;10.63;73.14;95638.41;4904263;28;20193;-82
2024/01/02 11:36:21;;;;;;;0.93;0.32;;;;;;;10.77;72.94;95619.47;4854839;29;20039;-84
2024/01/02 11:39:13;;;;;;;0.73;0.32;;;;;;;10.97;72.46;95631.41;4904683;28;20269;-82
2024/01/02 11:41:41;;;;;;;0.28;0.20;;;;;;;10.77;72.87;95616.88;4914954;28;20759;-84